createdAt,value
2018-09-15T00:23:14.961Z,101616.84
2018-09-15T00:25:43.392Z,101614.88
2018-09-15T00:28:12.350Z,101612.80
2018-09-15T00:30:41.091Z,101604.91
2018-09-15T00:33:09.406Z,101608.35
2018-09-15T00:35:37.710Z,101603.52
2018-09-15T00:38:06.122Z,101604.30
2018-09-15T00:40:34.434Z,101602.63
2018-09-15T00:43:02.715Z,101595.13
2018-09-15T00:45:30.985Z,101592.02
2018-09-15T00:47:59.288Z,101594.31
2018-09-15T00:50:27.585Z,101594.27
2018-09-15T00:52:55.914Z,101588.48
2018-09-15T00:55:24.294Z,101587.19
2018-09-15T00:57:52.540Z,101586.72
2018-09-15T01:00:27.091Z,101586.67
2018-09-15T01:02:55.367Z,101587.62
2018-09-15T01:05:23.609Z,101590.30
2018-09-15T01:07:51.865Z,101591.94
2018-09-15T01:10:20.125Z,101590.22
2018-09-15T01:16:00.531Z,101601.92
2018-09-15T01:18:28.773Z,101603.87
2018-09-15T01:20:57.010Z,101604.17
2018-09-15T01:23:25.270Z,101609.30
2018-09-15T01:25:53.923Z,101608.19
2018-09-15T01:28:22.213Z,101605.52
2018-09-15T01:30:50.474Z,101602.95
2018-09-15T01:33:18.713Z,101598.61
2018-09-15T01:35:46.936Z,101602.52
2018-09-15T01:38:15.151Z,101599.94
2018-09-15T01:40:43.412Z,101591.55
2018-09-15T01:43:11.703Z,101595.56
2018-09-15T01:45:39.945Z,101590.25
2018-09-15T01:48:08.217Z,101592.06
2018-09-15T01:50:36.478Z,101593.36
2018-09-15T01:53:04.721Z,101596.55
2018-09-15T01:55:32.957Z,101593.45
2018-09-15T01:58:01.206Z,101596.12
2018-09-15T02:00:29.418Z,101588.13
2018-09-15T02:02:57.658Z,101593.48
2018-09-15T02:05:25.970Z,101585.45
2018-09-15T02:07:54.202Z,101588.96
2018-09-15T02:10:22.465Z,101587.23
2018-09-15T02:24:34.025Z,101570.41
2018-09-15T02:27:02.353Z,101571.31
2018-09-15T02:29:30.645Z,101574.38
2018-09-15T02:31:58.901Z,101569.44
2018-09-15T02:34:27.181Z,101576.53
2018-09-15T02:36:55.512Z,101572.92
2018-09-15T02:39:23.829Z,101577.40
2018-09-15T02:41:52.112Z,101572.15
2018-09-15T02:44:20.419Z,101573.83
2018-09-15T02:46:48.717Z,101574.22
2018-09-15T02:49:17.038Z,101573.89
2018-09-15T02:51:45.341Z,101580.11
2018-09-15T02:54:13.612Z,101577.36
2018-09-15T02:56:41.861Z,101575.63
2018-09-15T02:59:10.130Z,101573.89
2018-09-15T03:01:38.382Z,101577.36
2018-09-15T03:04:06.642Z,101566.63
2018-09-15T03:06:34.895Z,101577.36
2018-09-15T03:09:03.263Z,101575.52
2018-09-15T03:11:31.530Z,101579.09
2018-09-15T04:26:21.455Z,101607.39
2018-09-15T04:28:49.801Z,101606.41
2018-09-15T04:31:18.088Z,101601.49
2018-09-15T04:33:46.348Z,101602.36
2018-09-15T04:36:14.653Z,101604.55
2018-09-15T04:38:42.972Z,101613.58
2018-09-15T04:41:11.261Z,101611.70
2018-09-15T04:43:39.535Z,101614.79
2018-09-15T04:46:07.834Z,101617.96
2018-09-15T04:48:36.141Z,101616.68
2018-09-15T04:51:04.435Z,101623.78
2018-09-15T04:53:32.741Z,101621.60
2018-09-15T04:56:01.506Z,101624.20
2018-09-15T04:58:29.765Z,101618.45
2018-09-15T05:00:58.062Z,101612.61
2018-09-15T05:03:26.321Z,101615.23
2018-09-15T05:05:54.569Z,101609.05
2018-09-15T05:08:22.787Z,101618.02
2018-09-15T05:10:51.037Z,101610.48
2018-09-15T06:13:25.426Z,101679.30
2018-09-15T06:15:53.795Z,101679.94
2018-09-15T06:18:22.129Z,101676.23
2018-09-15T06:20:50.431Z,101678.16
2018-09-15T07:14:45.925Z,101712.37
2018-09-15T07:17:14.281Z,101695.90
2018-09-15T08:17:14.853Z,101769.20
2018-09-15T08:19:43.173Z,101775.95
2018-09-15T08:22:11.492Z,101787.13
2018-09-15T08:24:39.858Z,101781.75
2018-09-15T08:27:09.032Z,101765.98
2018-09-15T08:29:37.346Z,101761.42
2018-09-15T08:32:05.671Z,101771.28
2018-09-15T08:34:33.912Z,101773.80
2018-09-15T08:37:02.205Z,101771.38
2018-09-15T08:39:30.494Z,101771.28
2018-09-15T08:41:58.789Z,101774.05
2018-09-15T08:44:27.053Z,101766.66
2018-09-15T08:46:55.341Z,101780.15
2018-09-15T08:49:23.570Z,101764.99
2018-09-15T08:51:51.797Z,101766.31
2018-09-15T08:54:20.041Z,101773.13
2018-09-15T08:56:49.142Z,101768.45
2018-09-15T08:59:17.405Z,101775.91
2018-09-15T09:01:45.637Z,101799.95
2018-09-15T09:04:13.881Z,101815.04
2018-09-15T09:06:42.121Z,101799.80
2018-09-15T09:09:11.930Z,101791.89
2018-09-15T09:11:40.214Z,101801.70
2018-09-15T09:17:01.473Z,101800.46
2018-09-15T09:22:43.200Z,101802.41
2018-09-15T09:28:04.281Z,101808.08
2018-09-15T09:30:32.522Z,101822.05
2018-09-15T09:33:00.881Z,101822.47
2018-09-15T09:35:29.115Z,101825.69
2018-09-15T09:37:57.350Z,101825.44
2018-09-15T09:40:25.633Z,101833.39
2018-09-15T09:42:53.894Z,101841.21
2018-09-15T09:45:22.145Z,101831.75
2018-09-15T09:47:50.450Z,101853.27
2018-09-15T09:50:18.713Z,101844.39
2018-09-15T09:52:47.009Z,101843.89
2018-09-15T09:55:15.270Z,101844.81
2018-09-15T09:57:43.542Z,101845.73
2018-09-15T10:00:15.970Z,101859.61
2018-09-15T10:02:44.234Z,101852.42
2018-09-15T10:05:12.491Z,101866.36
2018-09-15T10:07:40.781Z,101863.68
2018-09-15T10:10:09.068Z,101854.24
2018-09-15T10:18:22.801Z,101851.11
2018-09-15T10:20:51.077Z,101856.95
2018-09-15T10:23:19.353Z,101852.03
2018-09-15T10:25:47.709Z,101859.64
2018-09-15T10:28:15.969Z,101857.38
2018-09-15T10:30:44.245Z,101855.63
2018-09-15T10:33:12.713Z,101853.38
2018-09-15T10:35:40.965Z,101835.88
2018-09-15T10:38:09.218Z,101835.41
2018-09-15T10:40:37.512Z,101850.21
2018-09-15T10:43:05.746Z,101848.34
2018-09-15T10:45:34.001Z,101850.67
2018-09-15T10:48:02.283Z,101842.56
2018-09-15T10:50:30.550Z,101852.38
2018-09-15T10:52:58.830Z,101855.45
2018-09-15T10:55:27.074Z,101849.08
2018-09-15T10:57:55.344Z,101844.06
2018-09-15T11:00:23.608Z,101838.14
2018-09-15T11:02:51.881Z,101833.75
2018-09-15T11:05:20.156Z,101850.62
2018-09-15T11:07:48.383Z,101844.25
2018-09-15T11:10:16.658Z,101845.25
2018-09-15T12:17:16.017Z,101893.28
2018-09-15T12:26:25.229Z,101898.25
2018-09-15T12:28:53.539Z,101896.95
2018-09-15T12:31:21.865Z,101889.44
2018-09-15T12:33:50.199Z,101900.08
2018-09-15T12:36:18.513Z,101907.36
2018-09-15T12:38:46.858Z,101904.25
2018-09-15T12:41:15.198Z,101928.91
2018-09-15T12:43:43.517Z,101914.09
2018-09-15T12:46:11.818Z,101913.70
2018-09-15T12:48:40.136Z,101915.88
2018-09-15T12:51:08.427Z,101916.77
2018-09-15T12:53:36.670Z,101914.55
2018-09-15T12:56:04.918Z,101917.27
2018-09-15T12:58:33.170Z,101924.36
2018-09-15T13:01:01.437Z,101929.23
2018-09-15T13:03:29.722Z,101920.80
2018-09-15T13:05:58.013Z,101919.81
2018-09-15T13:08:26.280Z,101922.03
2018-09-15T13:10:54.517Z,101927.94
2018-09-15T13:19:14.961Z,101931.14
2018-09-15T13:21:43.219Z,101923.13
2018-09-15T13:24:11.494Z,101945.55
2018-09-15T13:26:39.742Z,101934.33
2018-09-15T13:29:07.986Z,101936.17
2018-09-15T13:31:36.263Z,101947.33
2018-09-15T13:34:04.535Z,101942.43
2018-09-15T13:36:32.793Z,101940.63
2018-09-15T13:39:01.041Z,101945.15
2018-09-15T13:41:29.310Z,101938.87
2018-09-15T13:43:57.546Z,101937.09
2018-09-15T13:46:25.837Z,101938.44
2018-09-15T13:48:54.099Z,101937.55
2018-09-15T13:51:22.353Z,101940.70
2018-09-15T13:53:50.626Z,101939.77
2018-09-15T13:56:18.878Z,101947.41
2018-09-15T13:58:47.191Z,101948.70
2018-09-15T14:01:15.445Z,101935.31
2018-09-15T14:03:43.708Z,101946.47
2018-09-15T14:06:13.322Z,101950.09
2018-09-15T14:08:41.689Z,101951.42
2018-09-15T14:11:09.928Z,101947.81
2018-09-15T14:16:31.828Z,101949.10
2018-09-15T14:21:54.946Z,101952.77
2018-09-15T14:27:18.640Z,101948.69
2018-09-15T14:29:48.186Z,101950.92
2018-09-15T14:32:20.923Z,101964.81
2018-09-15T14:34:50.925Z,101960.75
2018-09-15T14:37:19.998Z,101969.63
2018-09-15T14:39:53.485Z,101975.20
2018-09-15T14:42:21.805Z,101973.09
2018-09-15T14:44:51.385Z,101972.27
2018-09-15T14:47:24.433Z,101975.95
2018-09-15T14:49:52.740Z,101980.91
2018-09-15T14:52:21.926Z,101979.94
2018-09-15T14:54:50.192Z,101995.75
2018-09-15T14:57:18.452Z,101990.81
2018-09-15T14:59:46.726Z,101992.19
2018-09-15T15:02:14.980Z,101981.44
2018-09-15T15:04:43.189Z,101988.13
2018-09-15T15:07:11.429Z,101991.73
2018-09-15T15:09:39.681Z,101992.63
2018-09-15T15:12:09.585Z,101995.34
2018-09-15T15:29:11.736Z,101989.94
2018-09-15T15:31:40.071Z,101995.74
2018-09-15T15:34:08.287Z,101996.64
2018-09-15T15:36:36.619Z,101996.19
2018-09-15T15:39:06.658Z,102002.89
2018-09-15T15:41:34.941Z,101997.09
2018-09-15T15:44:03.290Z,101995.73
2018-09-15T15:46:31.771Z,102002.45
2018-09-15T15:49:00.077Z,102005.12
2018-09-15T15:51:28.413Z,102014.55
2018-09-15T15:53:56.669Z,102007.36
2018-09-15T15:56:24.926Z,102009.61
2018-09-15T15:58:53.424Z,102002.02
2018-09-15T16:01:22.010Z,102003.78
2018-09-15T16:03:50.697Z,102009.16
2018-09-15T16:06:18.977Z,102012.30
2018-09-15T16:08:47.222Z,102029.75
2018-09-15T16:11:15.545Z,102018.54
2018-09-15T16:19:28.417Z,102021.23
2018-09-15T16:21:56.658Z,102024.83
2018-09-15T16:24:24.890Z,102017.21
2018-09-15T16:26:53.157Z,102033.77
2018-09-15T16:29:21.527Z,102035.53
2018-09-15T16:31:49.764Z,102034.65
2018-09-15T16:34:18.058Z,102043.14
2018-09-15T16:36:46.333Z,102048.51
2018-09-15T16:39:14.597Z,102054.31
2018-09-15T16:41:42.867Z,102057.00
2018-09-15T16:44:11.126Z,102056.97
2018-09-15T16:46:39.381Z,102054.31
2018-09-15T16:49:08.189Z,102053.85
2018-09-15T16:51:36.485Z,102059.71
2018-09-15T16:54:05.513Z,102055.14
2018-09-15T16:56:33.755Z,102056.95
2018-09-15T16:59:01.989Z,102067.68
2018-09-15T17:01:30.241Z,102057.88
2018-09-15T17:03:58.469Z,102058.73
2018-09-15T17:06:26.751Z,102074.83
2018-09-15T17:08:55.001Z,102066.78
2018-09-15T17:11:23.252Z,102073.52
2018-09-15T17:13:51.558Z,102073.05
2018-09-15T17:16:20.074Z,102064.97
2018-09-15T17:18:51.224Z,102069.08
2018-09-15T17:21:19.585Z,102082.94
2018-09-15T17:23:47.838Z,102081.10
2018-09-15T17:26:16.101Z,102083.78
2018-09-15T17:31:34.825Z,102095.31
2018-09-15T17:34:03.588Z,102096.80
2018-09-15T17:36:31.840Z,102099.09
2018-09-15T17:39:00.092Z,102101.30
2018-09-15T17:41:28.333Z,102104.72
2018-09-15T17:43:56.570Z,102109.08
2018-09-15T17:46:25.501Z,102108.61
2018-09-15T17:48:54.477Z,102109.87
2018-09-15T17:51:23.365Z,102101.41
2018-09-15T17:53:51.591Z,102103.59
2018-09-15T18:02:04.764Z,102115.63
2018-09-15T18:04:33.001Z,102115.73
2018-09-15T18:07:01.254Z,102110.55
2018-09-15T18:09:34.438Z,102110.53
2018-09-15T18:12:02.670Z,102114.92
2018-09-15T18:14:31.604Z,102124.48
2018-09-15T18:16:59.842Z,102127.59
2018-09-15T18:19:28.105Z,102130.23
2018-09-15T18:24:48.865Z,102123.30
2018-09-15T18:27:17.101Z,102127.38
2018-09-15T18:29:45.394Z,102127.02
2018-09-15T18:32:14.805Z,102126.20
2018-09-15T18:34:43.078Z,102135.36
2018-09-15T18:48:33.040Z,102140.06
2018-09-15T18:53:54.066Z,102143.52
2018-09-15T18:56:22.499Z,102149.24
2018-09-15T18:58:50.763Z,102149.75
2018-09-15T19:04:09.138Z,102158.55
2018-09-15T19:06:37.383Z,102154.09
2018-09-15T19:09:08.045Z,102160.77
2018-09-15T19:11:42.713Z,102156.05
2018-09-15T19:17:03.966Z,102149.48
2018-09-15T19:19:32.270Z,102163.73
2018-09-15T19:22:00.518Z,102168.06
2018-09-15T19:24:28.833Z,102176.09
2018-09-15T19:26:57.120Z,102169.63
2018-09-15T19:29:25.393Z,102169.72
2018-09-15T19:31:53.677Z,102178.44
2018-09-15T19:34:21.927Z,102181.23
2018-09-15T19:39:31.983Z,102179.08
2018-09-15T19:42:00.306Z,102181.10
2018-09-15T19:44:28.974Z,102174.06
2018-09-15T19:46:57.480Z,102176.00
2018-09-15T19:49:26.058Z,102179.39
2018-09-15T19:51:54.854Z,102174.59
2018-09-15T19:54:23.154Z,102177.78
2018-09-15T19:56:51.443Z,102180.88
2018-09-15T19:59:19.787Z,102181.25
2018-09-15T20:01:48.054Z,102176.81
2018-09-15T20:12:47.929Z,102188.31
2018-09-15T20:15:23.006Z,102187.66
2018-09-15T20:17:50.603Z,102192.80
2018-09-15T20:20:18.182Z,102192.89
2018-09-15T20:22:46.668Z,102187.61
2018-09-15T20:25:15.013Z,102191.11
2018-09-15T20:27:43.271Z,102186.34
2018-09-15T20:30:11.570Z,102182.79
2018-09-15T20:32:40.062Z,102184.62
2018-09-15T20:35:08.376Z,102189.48
2018-09-15T20:37:37.763Z,102185.11
2018-09-15T20:40:06.218Z,102185.41
2018-09-15T20:42:34.825Z,102183.60
2018-09-15T20:45:03.339Z,102189.75
2018-09-15T20:47:32.511Z,102182.73
2018-09-15T20:50:00.928Z,102185.42
2018-09-15T20:52:29.686Z,102188.81
2018-09-15T20:54:57.971Z,102187.07
2018-09-15T20:57:26.336Z,102193.83
2018-09-15T20:59:54.574Z,102194.77
2018-09-15T21:02:22.864Z,102202.19
2018-09-15T21:04:51.200Z,102202.27
2018-09-15T21:07:19.499Z,102202.61
2018-09-15T21:09:47.759Z,102203.50
2018-09-15T21:12:16.103Z,102211.38
2018-09-15T21:14:44.390Z,102212.71
2018-09-15T22:14:24.920Z,102256.52
2018-09-15T23:14:42.655Z,102253.23
2018-09-15T23:17:11.015Z,102259.63
2018-09-15T23:19:39.351Z,102257.47
2018-09-15T23:22:08.079Z,102270.92
2018-09-15T23:24:36.654Z,102269.33
2018-09-15T23:27:04.952Z,102272.73
2018-09-15T23:29:33.487Z,102277.67
2018-09-15T23:32:01.863Z,102278.38
2018-09-15T23:34:30.253Z,102278.22
2018-09-15T23:36:58.740Z,102272.89
2018-09-15T23:47:58.202Z,102274.95
2018-09-15T23:58:57.979Z,102273.08
